Latest Coastal Weather Observations for Sydney Airport

IDN60701

Issued at 12:02 am EST Wednesday 1 June 2016 (issued every 10 minutes, with the page automatically refreshed every 10 minutes)

About coastal observations | Map of coastal stations | Coastal observations for NSW | Marine services | Other Formats
Station Details ID: 066037 Name: SYDNEY AIRPORT AMO Lat: -33.95 Lon: 151.17 Height: 6.0 m
Data from the previous 72 hours. | See also: Recent months at Sydney Airport
Date/Time
EST
Temp

°C
Wind Pressure Rain
since 9am
mm
Weather Cloud Vis
km
Sea
Height
m
Swell
Dir
 
Speed
knots
Gust
knots
hPa Trend Height
m
Period
s
Dir
31/11:30pm 13.7 NNW 7 8 1028.8 - 6.0 - Mostly clear 10 - - - -
31/11:00pm 14.0 NNW 6 10 1028.9 - 6.0 - Mostly clear 10 - - - -
31/10:30pm 14.3 NW 5 6 1029.0 - 6.0 - Mostly clear 10 - - - -
31/10:00pm 14.3 W 5 7 1029.0 - 6.0 - Mostly clear 10 - - - -
31/09:30pm 14.5 WSW 6 8 1029.2 - 6.0 - Mostly clear 10 - - - -
31/09:00pm 14.7 ESE 4 6 1029.0 F 6.0 Recent precip. Mostly cloudy 25 - - - -
31/08:30pm 13.8 WSW 7 9 1028.9 - 6.0 Showers Mostly clear 10 - - - -
31/08:00pm 14.2 SW 6 10 1028.9 - 6.0 - Mostly clear 10 - - - -
31/07:30pm 14.1 S 6 8 1028.9 - 6.0 Drizzle Mostly clear 10 - - - -
31/07:00pm 13.8 ENE 3 4 1028.8 - 6.0 - Mostly clear 10 - - - -
31/06:30pm 13.9 E 8 9 1028.5 - 5.4 Showers Mostly clear 9 - - - -
31/06:00pm 14.7 ESE 11 15 1028.3 R 5.2 Recent precip. Mostly cloudy 25 - - - -
31/05:30pm 14.6 SE 11 15 1027.9 - 5.2 Drizzle Mostly clear 10 - - - -
31/05:00pm 15.4 SE 11 18 1027.7 - 5.0 - Mostly clear 10 - - - -
31/04:59pm 15.5 SSE 10 18 1027.7 - 5.0 - Mostly clear 10 - - - -
31/04:30pm 15.3 SE 5 7 1027.6 - 5.0 Showers Partly cloudy 9 - - - -
31/04:00pm 15.7 ESE 7 8 1027.6 - 4.6 - Mostly clear 10 - - - -
31/03:30pm 15.7 SE 7 10 1027.5 - 4.4 Showers Mostly clear 10 - - - -
31/03:00pm 15.6 E 8 10 1027.4 R 4.4 Showers Mostly cloudy 18 - - - -
31/02:30pm 15.3 ESE 6 7 1027.5 - 4.4 Showers Mostly clear 10 - - - -
31/02:00pm 14.7 E 3 4 1027.5 - 4.2 - Mostly clear 10 - - - -
31/01:30pm 14.4 NE 2 4 1027.8 - 3.4 Showers Mostly clear 5 - - - -
31/01:12pm 14.4 ESE 5 6 1027.9 - 1.6 Showers Mostly clear 5 - - - -
31/01:00pm 14.4 SSE 5 5 1028.1 - 0.2 - Mostly clear 8 - - - -
31/12:30pm 14.9 SE 8 10 1028.2 - 0.0 Showers Mostly clear 10 - - - -
31/12:00pm 15.2 S 11 16 1028.4 R 0.0 Showers Mostly cloudy 12 - - - -
31/11:30am 16.0 SW 6 14 1028.6 - 0.0 - Mostly clear 10 - - - -
31/11:00am 14.9 W 5 6 1029.0 - 0.0 - Mostly clear 10 - - - -
31/10:30am 14.2 WNW 5 7 1029.3 - 0.0 - Mostly clear 10 - - - -
31/10:00am 13.9 NW 6 9 1029.5 - 0.0 - Mostly clear 10 - - - -
31/09:30am 13.2 NW 7 8 1029.5 - 0.0 - Mostly clear 10 - - - -
31/09:00am 12.4 NNW 7 8 1029.5 R 3.6 Distant precip. Mostly cloudy 18 - - - -
31/08:30am 11.4 NW 8 9 1029.2 - 3.6 - Mostly clear 10 - - - -
31/08:00am 10.9 NNW 9 12 1029.1 - 3.6 - Mostly clear 10 - - - -
31/07:30am 10.6 NNW 6 8 1028.8 - 3.4 Showers Mostly clear 10 - - - -
31/07:00am 10.3 WNW 7 10 1028.6 - 2.6 - Mostly clear 5 - - - -
31/06:30am 9.8 NNW 6 7 1028.4 - 1.8 Showers Mostly clear 10 - - - -
31/06:00am 9.3 NNW 7 7 1027.9 R 1.8 Showers Mostly cloudy 8 - - - -
31/05:30am 8.8 WNW 7 9 1027.6 - 0.8 Rain Mostly clear 9 - - - -
31/05:00am 9.1 WNW 8 10 1027.4 - 0.0 - Mostly clear 10 - - - -
31/04:30am 8.9 NW 8 9 1027.1 - 0.0 - Mostly clear 10 - - - -
31/04:00am 10.0 NW 5 6 1027.3 - 0.0 - Mostly clear 10 - - - -
31/03:30am 9.5 WNW 7 8 1027.1 - 0.0 - Mostly clear 10 - - - -
31/03:00am 9.3 NW 9 10 1027.2 R 0.0 Distant precip. Partly cloudy 20 - - - -
31/02:30am 9.2 NW 9 11 1027.1 - 0.0 - Mostly clear 10 - - - -
31/02:00am 9.1 NW 8 10 1027.1 - 0.0 - Mostly clear 10 - - - -
31/01:30am 9.3 NNW 7 8 1027.3 - 0.0 - Mostly clear 10 - - - -
31/01:00am 9.2 NW 7 8 1027.3 - 0.0 - - 10 - - - -
31/12:30am 9.5 NW 7 8 1027.2 - 0.0 - Mostly clear 10 - - - -
31/12:00am 9.9 NW 8 9 1027.5 R 0.0 Distant precip. Partly cloudy 30 - - - -
 
Date/Time
EST
Temp

°C
Wind Pressure Rain
since 9am
mm
Weather Cloud Vis
km
Sea
Height
m
Swell
Dir
 
Speed
knots
Gust
knots
hPa Trend Height
m
Period
s
Dir
30/11:30pm 10.3 NW 8 9 1027.5 - 0.0 - Mostly clear 10 - - - -
30/11:00pm 10.5 NW 8 10 1027.5 - 0.0 - Mostly clear 10 - - - -
30/10:30pm 11.0 NW 8 9 1027.3 - 0.0 - Mostly clear 10 - - - -
30/10:00pm 11.6 NW 6 11 1027.4 - 0.0 - Mostly clear 10 - - - -
30/09:30pm 12.8 WSW 8 17 1027.1 - 0.0 - Mostly clear 10 - - - -
30/09:00pm 12.6 SW 9 21 1026.9 R 0.0 Distant precip. Mostly clear 30 - - - -
30/08:30pm 12.9 SW 9 13 1026.7 - 0.0 - Mostly clear 10 - - - -
30/08:00pm 13.5 SW 8 9 1026.9 - 0.0 - Mostly clear 10 - - - -
30/07:30pm 14.4 SW 10 12 1026.5 - 0.0 - Mostly clear 10 - - - -
30/07:00pm 14.0 SW 8 19 1026.2 - 0.0 - - 10 - - - -
30/06:30pm 14.0 WSW 7 7 1026.1 - 0.0 - - 10 - - - -
30/06:00pm 14.4 SW 7 8 1025.9 R 0.0 Distant precip. Mostly clear 30 - - - -
30/05:30pm 15.2 SSW 7 8 1025.5 - 0.0 - Mostly clear 10 - - - -
30/05:00pm 15.5 SSW 8 15 1025.2 - 0.0 - - 10 - - - -
30/04:30pm 15.9 S 9 11 1024.8 - 0.0 - - 10 - - - -
30/04:00pm 16.3 S 9 14 1024.5 - 0.0 - - 10 - - - -
30/03:30pm 16.6 S 9 12 1024.4 - 0.0 - - 10 - - - -
30/03:00pm 16.7 S 9 11 1024.2 R 0.0 Fine Mostly clear 30 - - - -
30/02:30pm 17.4 S 7 9 1024.1 - 0.0 - - 10 - - - -
30/02:00pm 17.3 S 8 10 1024.0 - 0.0 - - 10 - - - -
30/01:30pm 17.3 SW 5 6 1024.0 - 0.0 - - 10 - - - -
30/01:00pm 17.0 W 5 7 1024.1 - 0.0 - - 10 - - - -
30/12:30pm 16.7 WSW 4 6 1024.3 - 0.0 - - 10 - - - -
30/12:00pm 16.2 W 5 7 1024.7 R 0.0 Fine Mostly clear 30 - - - -
30/11:30am 17.0 WNW 7 10 1025.1 - 0.0 - Mostly clear 10 - - - -
30/11:00am 16.1 WNW 8 10 1025.5 - 0.0 - Mostly clear 10 - - - -
30/10:30am 14.7 WNW 9 11 1025.7 - 0.0 - Mostly clear 10 - - - -
30/10:00am 14.4 WNW 10 14 1025.8 - 0.0 - Mostly clear 10 - - - -
30/09:30am 12.5 NW 11 14 1025.7 - 0.0 - Mostly clear 10 - - - -
30/09:00am 11.7 NW 10 15 1025.4 R 0.2 Fine Mostly clear 30 - - - -
30/08:30am 10.1 WNW 8 10 1025.1 - 0.2 - Mostly clear 10 - - - -
30/08:00am 9.2 WNW 8 10 1024.9 - 0.2 - Mostly clear 10 - - - -
30/07:30am 8.9 WNW 8 10 1024.5 - 0.2 - Mostly clear 10 - - - -
30/07:00am 8.1 WNW 9 11 1024.2 - 0.2 - Mostly clear 10 - - - -
30/06:30am 7.8 NW 9 13 1023.7 - 0.2 - Mostly clear 10 - - - -
30/06:00am 7.9 WNW 9 10 1023.4 R 0.2 Fine Mostly clear 30 - - - -
30/05:30am 7.9 WNW 9 11 1022.9 - 0.2 - - 10 - - - -
30/05:00am 7.9 WNW 8 10 1022.6 - 0.2 - - 10 - - - -
30/04:30am 7.5 W 9 10 1022.3 - 0.2 - - 10 - - - -
30/04:00am 7.8 W 10 12 1021.8 - 0.2 - - 10 - - - -
30/03:30am 7.6 WNW 9 11 1021.9 - 0.2 - - 10 - - - -
30/03:00am 7.9 WNW 10 13 1021.8 R 0.2 Fine Clear 30 - - - -
30/02:30am 7.9 WNW 8 10 1021.8 - 0.2 - - 10 - - - -
30/02:00am 8.2 W 9 12 1021.8 - 0.2 - - 10 - - - -
30/01:30am 8.6 W 11 14 1021.6 - 0.2 - - 10 - - - -
30/01:00am 9.4 W 14 16 1021.3 - 0.2 - - 10 - - - -
30/12:30am 9.8 W 15 19 1021.1 - 0.2 - - 10 - - - -
30/12:00am 9.9 W 17 22 1021.2 R 0.2 Fine Clear 30 - - - -
 
Date/Time
EST
Temp

°C
Wind Pressure Rain
since 9am
mm
Weather Cloud Vis
km
Sea
Height
m
Swell
Dir
 
Speed
knots
Gust
knots
hPa Trend Height
m
Period
s
Dir
29/11:30pm 10.2 W 11 15 1021.2 - 0.2 - - 10 - - - -
29/11:00pm 10.5 W 9 11 1021.0 - 0.2 - - 10 - - - -
29/10:30pm 10.8 WSW 9 10 1021.1 - 0.2 - - 10 - - - -
29/10:00pm 11.1 W 9 11 1021.0 - 0.2 - - 10 - - - -
29/09:30pm 11.5 WSW 11 14 1020.9 - 0.2 - - 10 - - - -
29/09:00pm 12.0 WSW 13 15 1020.6 R 0.2 Fine Clear 40 - - - -
29/08:30pm 12.1 WSW 10 13 1020.3 - 0.2 - - 10 - - - -
29/08:00pm 12.6 WSW 10 13 1020.0 - 0.2 - - 10 - - - -
29/07:30pm 13.8 SW 11 13 1019.3 - 0.2 - - 10 - - - -
29/07:00pm 13.6 SW 8 11 1019.1 - 0.2 - - 10 - - - -
29/06:30pm 14.3 SW 7 15 1018.7 - 0.2 - - 10 - - - -
29/06:00pm 14.6 SSW 6 8 1018.3 R 0.2 Fine Mostly clear 40 - - - -
29/05:30pm 14.9 S 6 7 1017.9 - 0.2 - - 10 - - - -
29/05:00pm 15.4 S 6 7 1017.5 - 0.2 - - 10 - - - -
29/04:30pm 16.6 SW 6 14 1017.1 - 0.2 - - 10 - - - -
29/04:00pm 17.2 SSW 5 9 1016.7 - 0.2 - - 10 - - - -
29/03:30pm 17.3 SSW 7 17 1016.5 - 0.2 - - 10 - - - -
29/03:00pm 18.1 W 8 11 1016.5 R 0.2 Fine Mostly clear 40 - - - -
29/02:30pm 18.6 WSW 10 14 1016.3 - 0.2 - - 10 - - - -
29/02:00pm 17.4 WSW 6 13 1016.3 - 0.2 - - 10 - - - -
29/01:30pm 18.4 WSW 9 14 1016.1 - 0.2 - - 10 - - - -
29/01:00pm 17.4 WSW 9 12 1016.2 - 0.2 - - 10 - - - -
29/12:30pm 16.8 WSW 10 15 1016.3 - 0.2 - - 10 - - - -
29/12:00pm 16.0 W 11 15 1016.5 R 0.2 Fine Mostly clear 40 - - - -
29/11:30am 15.8 W 12 17 1016.7 - 0.2 - - 10 - - - -
29/11:00am 16.0 W 13 18 1017.2 - 0.0 - - 10 - - - -
29/10:30am 15.1 W 15 21 1017.4 - 0.0 - - 10 - - - -
29/10:00am 14.0 W 12 17 1017.4 - 0.0 - - 10 - - - -
29/09:30am 13.3 WNW 11 15 1017.3 - 0.0 - - 10 - - - -
29/09:00am 12.3 WNW 11 15 1017.1 R 4.2 Fine Mostly clear 40 - - - -
29/08:30am 11.3 NW 9 10 1016.9 - 4.2 - - 10 - - - -
29/08:00am 10.1 W 10 13 1016.6 - 4.2 - - 10 - - - -
29/07:30am 9.4 W 10 13 1016.3 - 4.2 - - 10 - - - -
29/07:00am 8.5 W 10 13 1015.8 - 4.2 - - 10 - - - -
29/06:30am 8.3 W 9 12 1015.7 - 4.2 - - 10 - - - -
29/06:00am 8.1 W 9 13 1015.6 R 4.2 Fine Clear 30 - - - -
29/05:30am 7.9 WNW 9 11 1015.1 - 4.2 - - 10 - - - -
29/05:00am 8.4 WNW 11 13 1014.6 - 4.2 - - 10 - - - -
29/04:30am 8.8 W 10 13 1014.1 - 4.2 - - 10 - - - -
29/04:00am 9.2 WNW 13 15 1013.9 - 4.2 - - 10 - - - -
29/03:30am 9.1 W 12 15 1013.7 - 4.2 - - 10 - - - -
29/03:00am 9.4 WNW 10 14 1013.7 R 4.2 Fine Clear 30 - - - -
29/02:30am 9.3 WNW 11 14 1013.5 - 4.2 - - 10 - - - -
29/02:00am 9.5 NW 8 10 1013.5 - 4.2 - - 10 - - - -
29/01:30am 9.9 WNW 13 16 1013.3 - 4.2 - - 10 - - - -
29/01:00am 9.9 WNW 11 13 1013.1 - 4.2 - - 10 - - - -
29/12:30am 10.1 W 12 15 1012.9 - 4.2 - - 10 - - - -

Other Formats:

Comma delimited format used in spreadsheet applications
http://www.bom.gov.au/fwo/IDN60701/IDN60701.94767.axf

JavaScript Object Notation format (JSON) in row-major order
http://www.bom.gov.au/fwo/IDN60701/IDN60701.94767.json